sensor_id;sensor_type;location;lat;lon;timestamp;P1;durP1;ratioP1;P2;durP2;ratioP2
36651;SDS011;53334;51.976;20.144;2022-11-20T00:01:56;10.05;;;7.70;;
36651;SDS011;53334;51.976;20.144;2022-11-20T00:07:04;9.57;;;7.83;;
36651;SDS011;53334;51.976;20.144;2022-11-20T00:09:37;12.38;;;8.05;;
36651;SDS011;53334;51.976;20.144;2022-11-20T00:14:46;10.88;;;7.78;;
36651;SDS011;53334;51.976;20.144;2022-11-20T00:19:53;11.30;;;8.20;;
36651;SDS011;53334;51.976;20.144;2022-11-20T00:25:01;16.25;;;9.30;;
36651;SDS011;53334;51.976;20.144;2022-11-20T00:30:10;11.30;;;8.60;;
36651;SDS011;53334;51.976;20.144;2022-11-20T00:32:46;11.85;;;8.13;;
36651;SDS011;53334;51.976;20.144;2022-11-20T00:37:53;11.45;;;8.02;;
36651;SDS011;53334;51.976;20.144;2022-11-20T00:40:27;11.52;;;8.32;;
36651;SDS011;53334;51.976;20.144;2022-11-20T00:45:35;13.23;;;8.88;;
36651;SDS011;53334;51.976;20.144;2022-11-20T00:48:09;13.43;;;8.65;;
36651;SDS011;53334;51.976;20.144;2022-11-20T00:53:17;12.00;;;8.33;;
36651;SDS011;53334;51.976;20.144;2022-11-20T00:55:54;11.10;;;8.13;;
36651;SDS011;53334;51.976;20.144;2022-11-20T00:58:31;14.15;;;8.48;;
36651;SDS011;53334;51.976;20.144;2022-11-20T01:01:06;11.27;;;8.20;;
36651;SDS011;53334;51.976;20.144;2022-11-20T01:03:42;15.98;;;7.82;;
36651;SDS011;53334;51.976;20.144;2022-11-20T01:06:17;13.57;;;8.07;;
36651;SDS011;53334;51.976;20.144;2022-11-20T01:08:53;15.05;;;8.73;;
36651;SDS011;53334;51.976;20.144;2022-11-20T01:11:28;10.57;;;7.68;;
36651;SDS011;53334;51.976;20.144;2022-11-20T01:14:05;11.98;;;8.18;;
36651;SDS011;53334;51.976;20.144;2022-11-20T01:16:40;11.57;;;8.05;;
36651;SDS011;53334;51.976;20.144;2022-11-20T01:19:20;13.63;;;8.43;;
36651;SDS011;53334;51.976;20.144;2022-11-20T01:21:56;10.35;;;7.75;;
36651;SDS011;53334;51.976;20.144;2022-11-20T01:27:03;17.15;;;8.10;;
36651;SDS011;53334;51.976;20.144;2022-11-20T01:32:12;11.98;;;7.13;;
36651;SDS011;53334;51.976;20.144;2022-11-20T01:37:19;11.65;;;7.57;;
36651;SDS011;53334;51.976;20.144;2022-11-20T01:42:26;10.60;;;8.50;;
36651;SDS011;53334;51.976;20.144;2022-11-20T01:48:26;12.50;;;9.25;;
36651;SDS011;53334;51.976;20.144;2022-11-20T01:51:05;12.35;;;9.00;;
36651;SDS011;53334;51.976;20.144;2022-11-20T01:53:45;12.40;;;7.78;;
36651;SDS011;53334;51.976;20.144;2022-11-20T01:56:20;18.10;;;9.32;;
36651;SDS011;53334;51.976;20.144;2022-11-20T01:58:56;10.27;;;7.70;;
36651;SDS011;53334;51.976;20.144;2022-11-20T02:01:35;15.38;;;8.95;;
36651;SDS011;53334;51.976;20.144;2022-11-20T02:04:11;13.35;;;8.95;;
36651;SDS011;53334;51.976;20.144;2022-11-20T02:06:47;10.85;;;7.45;;
36651;SDS011;53334;51.976;20.144;2022-11-20T02:09:23;15.57;;;8.50;;
36651;SDS011;53334;51.976;20.144;2022-11-20T02:11:58;12.45;;;8.27;;
36651;SDS011;53334;51.976;20.144;2022-11-20T02:14:33;12.93;;;8.63;;
36651;SDS011;53334;51.976;20.144;2022-11-20T02:17:07;14.90;;;8.93;;
36651;SDS011;53334;51.976;20.144;2022-11-20T02:19:41;12.38;;;8.60;;
36651;SDS011;53334;51.976;20.144;2022-11-20T02:22:17;12.80;;;8.57;;
36651;SDS011;53334;51.976;20.144;2022-11-20T02:24:57;10.18;;;7.55;;
36651;SDS011;53334;51.976;20.144;2022-11-20T02:27:34;10.80;;;8.32;;
36651;SDS011;53334;51.976;20.144;2022-11-20T02:30:09;10.05;;;8.30;;
36651;SDS011;53334;51.976;20.144;2022-11-20T02:32:44;12.80;;;8.57;;
36651;SDS011;53334;51.976;20.144;2022-11-20T02:38:33;15.27;;;9.30;;
36651;SDS011;53334;51.976;20.144;2022-11-20T02:43:42;10.43;;;8.48;;
36651;SDS011;53334;51.976;20.144;2022-11-20T02:48:49;13.20;;;8.73;;
36651;SDS011;53334;51.976;20.144;2022-11-20T02:53:56;8.70;;;7.23;;
36651;SDS011;53334;51.976;20.144;2022-11-20T02:56:32;9.25;;;7.40;;
36651;SDS011;53334;51.976;20.144;2022-11-20T02:59:06;13.90;;;9.10;;
36651;SDS011;53334;51.976;20.144;2022-11-20T03:01:40;12.13;;;8.93;;
36651;SDS011;53334;51.976;20.144;2022-11-20T03:04:14;11.80;;;8.43;;
36651;SDS011;53334;51.976;20.144;2022-11-20T03:06:48;10.23;;;8.10;;
36651;SDS011;53334;51.976;20.144;2022-11-20T03:09:21;10.25;;;8.55;;
36651;SDS011;53334;51.976;20.144;2022-11-20T03:14:30;13.85;;;8.57;;
36651;SDS011;53334;51.976;20.144;2022-11-20T03:19:37;11.50;;;8.23;;
36651;SDS011;53334;51.976;20.144;2022-11-20T03:24:45;11.45;;;8.95;;
36651;SDS011;53334;51.976;20.144;2022-11-20T03:29:53;12.25;;;8.65;;
36651;SDS011;53334;51.976;20.144;2022-11-20T03:35:01;12.57;;;8.07;;
36651;SDS011;53334;51.976;20.144;2022-11-20T03:37:35;13.30;;;7.85;;
36651;SDS011;53334;51.976;20.144;2022-11-20T03:42:44;13.00;;;9.60;;
36651;SDS011;53334;51.976;20.144;2022-11-20T03:45:18;10.73;;;8.27;;
36651;SDS011;53334;51.976;20.144;2022-11-20T03:50:26;9.97;;;8.07;;
36651;SDS011;53334;51.976;20.144;2022-11-20T03:55:33;13.88;;;8.45;;
36651;SDS011;53334;51.976;20.144;2022-11-20T04:00:42;10.52;;;8.63;;
36651;SDS011;53334;51.976;20.144;2022-11-20T04:03:17;10.75;;;8.48;;
36651;SDS011;53334;51.976;20.144;2022-11-20T04:05:50;16.02;;;8.70;;
36651;SDS011;53334;51.976;20.144;2022-11-20T04:11:07;12.30;;;8.75;;
36651;SDS011;53334;51.976;20.144;2022-11-20T04:13:45;14.80;;;9.95;;
36651;SDS011;53334;51.976;20.144;2022-11-20T04:16:20;11.45;;;8.43;;
36651;SDS011;53334;51.976;20.144;2022-11-20T04:18:55;14.10;;;8.23;;
36651;SDS011;53334;51.976;20.144;2022-11-20T04:21:30;11.25;;;8.45;;
36651;SDS011;53334;51.976;20.144;2022-11-20T04:26:39;11.63;;;8.65;;
36651;SDS011;53334;51.976;20.144;2022-11-20T04:29:15;11.95;;;8.43;;
36651;SDS011;53334;51.976;20.144;2022-11-20T04:31:49;13.50;;;8.27;;
36651;SDS011;53334;51.976;20.144;2022-11-20T04:36:56;14.85;;;8.70;;
36651;SDS011;53334;51.976;20.144;2022-11-20T04:42:03;14.35;;;8.85;;
36651;SDS011;53334;51.976;20.144;2022-11-20T04:44:56;12.55;;;9.48;;
36651;SDS011;53334;51.976;20.144;2022-11-20T04:47:30;12.13;;;9.05;;
36651;SDS011;53334;51.976;20.144;2022-11-20T04:52:38;18.35;;;9.88;;
36651;SDS011;53334;51.976;20.144;2022-11-20T04:57:49;15.50;;;7.93;;
36651;SDS011;53334;51.976;20.144;2022-11-20T05:00:24;12.27;;;7.97;;
36651;SDS011;53334;51.976;20.144;2022-11-20T05:02:58;11.95;;;8.60;;
36651;SDS011;53334;51.976;20.144;2022-11-20T05:08:06;11.88;;;7.82;;
36651;SDS011;53334;51.976;20.144;2022-11-20T05:13:13;13.73;;;9.35;;
36651;SDS011;53334;51.976;20.144;2022-11-20T05:18:22;16.00;;;8.25;;
36651;SDS011;53334;51.976;20.144;2022-11-20T05:23:30;12.90;;;9.30;;
36651;SDS011;53334;51.976;20.144;2022-11-20T05:26:05;15.05;;;9.43;;
36651;SDS011;53334;51.976;20.144;2022-11-20T05:28:39;14.55;;;9.10;;
36651;SDS011;53334;51.976;20.144;2022-11-20T05:33:57;11.73;;;9.00;;
36651;SDS011;53334;51.976;20.144;2022-11-20T05:39:05;15.02;;;8.50;;
36651;SDS011;53334;51.976;20.144;2022-11-20T05:41:39;12.23;;;8.30;;
36651;SDS011;53334;51.976;20.144;2022-11-20T05:44:12;13.10;;;8.57;;
36651;SDS011;53334;51.976;20.144;2022-11-20T05:46:48;13.18;;;8.32;;
36651;SDS011;53334;51.976;20.144;2022-11-20T05:49:22;10.68;;;8.45;;
36651;SDS011;53334;51.976;20.144;2022-11-20T05:51:56;10.48;;;8.00;;
36651;SDS011;53334;51.976;20.144;2022-11-20T05:54:30;11.80;;;8.57;;
36651;SDS011;53334;51.976;20.144;2022-11-20T05:57:04;9.43;;;8.13;;
36651;SDS011;53334;51.976;20.144;2022-11-20T06:02:13;11.73;;;7.63;;
36651;SDS011;53334;51.976;20.144;2022-11-20T06:04:46;13.10;;;8.68;;
36651;SDS011;53334;51.976;20.144;2022-11-20T06:09:54;18.23;;;8.98;;
36651;SDS011;53334;51.976;20.144;2022-11-20T06:15:01;12.00;;;8.90;;
36651;SDS011;53334;51.976;20.144;2022-11-20T06:17:37;14.70;;;9.25;;
36651;SDS011;53334;51.976;20.144;2022-11-20T06:20:10;9.32;;;7.57;;
36651;SDS011;53334;51.976;20.144;2022-11-20T06:25:18;11.68;;;8.45;;
36651;SDS011;53334;51.976;20.144;2022-11-20T06:30:25;12.18;;;8.57;;
36651;SDS011;53334;51.976;20.144;2022-11-20T06:35:34;10.13;;;8.15;;
36651;SDS011;53334;51.976;20.144;2022-11-20T06:40:41;11.07;;;8.07;;
36651;SDS011;53334;51.976;20.144;2022-11-20T06:43:16;10.00;;;7.85;;
36651;SDS011;53334;51.976;20.144;2022-11-20T06:48:26;15.68;;;8.55;;
36651;SDS011;53334;51.976;20.144;2022-11-20T06:51:02;15.45;;;9.10;;
36651;SDS011;53334;51.976;20.144;2022-11-20T06:53:37;12.50;;;9.18;;
36651;SDS011;53334;51.976;20.144;2022-11-20T06:56:11;11.60;;;7.78;;
36651;SDS011;53334;51.976;20.144;2022-11-20T07:01:18;12.00;;;8.23;;
36651;SDS011;53334;51.976;20.144;2022-11-20T07:03:54;10.25;;;8.18;;
36651;SDS011;53334;51.976;20.144;2022-11-20T07:06:28;12.07;;;8.50;;
36651;SDS011;53334;51.976;20.144;2022-11-20T07:11:43;14.82;;;10.88;;
36651;SDS011;53334;51.976;20.144;2022-11-20T07:16:50;21.83;;;12.85;;
36651;SDS011;53334;51.976;20.144;2022-11-20T07:19:25;25.00;;;14.27;;
36651;SDS011;53334;51.976;20.144;2022-11-20T07:21:59;19.50;;;14.18;;
36651;SDS011;53334;51.976;20.144;2022-11-20T07:27:06;23.42;;;16.67;;
36651;SDS011;53334;51.976;20.144;2022-11-20T07:32:14;33.63;;;16.98;;
36651;SDS011;53334;51.976;20.144;2022-11-20T07:34:49;22.45;;;15.48;;
36651;SDS011;53334;51.976;20.144;2022-11-20T07:37:23;27.23;;;18.02;;
36651;SDS011;53334;51.976;20.144;2022-11-20T07:42:30;29.65;;;17.90;;
36651;SDS011;53334;51.976;20.144;2022-11-20T07:45:06;26.40;;;17.30;;
36651;SDS011;53334;51.976;20.144;2022-11-20T07:47:40;23.42;;;17.17;;
36651;SDS011;53334;51.976;20.144;2022-11-20T07:52:49;28.70;;;18.65;;
36651;SDS011;53334;51.976;20.144;2022-11-20T07:55:23;31.13;;;17.30;;
36651;SDS011;53334;51.976;20.144;2022-11-20T08:00:31;28.17;;;16.50;;
36651;SDS011;53334;51.976;20.144;2022-11-20T08:03:05;31.52;;;17.95;;
36651;SDS011;53334;51.976;20.144;2022-11-20T08:05:41;31.63;;;20.23;;
36651;SDS011;53334;51.976;20.144;2022-11-20T08:08:15;31.85;;;18.48;;
36651;SDS011;53334;51.976;20.144;2022-11-20T08:13:22;47.42;;;37.58;;
36651;SDS011;53334;51.976;20.144;2022-11-20T08:16:14;38.63;;;30.50;;
36651;SDS011;53334;51.976;20.144;2022-11-20T08:18:47;42.33;;;30.50;;
36651;SDS011;53334;51.976;20.144;2022-11-20T08:23:58;37.22;;;28.38;;
36651;SDS011;53334;51.976;20.144;2022-11-20T08:29:05;33.58;;;24.85;;
36651;SDS011;53334;51.976;20.144;2022-11-20T08:31:39;32.22;;;23.55;;
36651;SDS011;53334;51.976;20.144;2022-11-20T08:36:51;31.85;;;25.23;;
36651;SDS011;53334;51.976;20.144;2022-11-20T08:39:25;33.05;;;23.63;;
36651;SDS011;53334;51.976;20.144;2022-11-20T08:41:58;35.78;;;24.50;;
36651;SDS011;53334;51.976;20.144;2022-11-20T08:47:06;33.47;;;21.95;;
36651;SDS011;53334;51.976;20.144;2022-11-20T08:52:14;31.85;;;21.25;;
36651;SDS011;53334;51.976;20.144;2022-11-20T08:54:48;30.38;;;21.63;;
36651;SDS011;53334;51.976;20.144;2022-11-20T08:59:56;30.88;;;21.80;;
36651;SDS011;53334;51.976;20.144;2022-11-20T09:02:37;32.50;;;21.67;;
36651;SDS011;53334;51.976;20.144;2022-11-20T09:07:46;33.30;;;21.77;;
36651;SDS011;53334;51.976;20.144;2022-11-20T09:10:19;28.30;;;20.77;;
36651;SDS011;53334;51.976;20.144;2022-11-20T09:12:56;28.63;;;20.95;;
36651;SDS011;53334;51.976;20.144;2022-11-20T09:15:30;31.70;;;22.30;;
36651;SDS011;53334;51.976;20.144;2022-11-20T09:18:04;30.58;;;20.48;;
36651;SDS011;53334;51.976;20.144;2022-11-20T09:20:38;26.95;;;19.58;;
36651;SDS011;53334;51.976;20.144;2022-11-20T09:23:13;29.85;;;20.65;;
36651;SDS011;53334;51.976;20.144;2022-11-20T09:25:47;31.45;;;20.02;;
36651;SDS011;53334;51.976;20.144;2022-11-20T09:30:55;27.13;;;20.25;;
36651;SDS011;53334;51.976;20.144;2022-11-20T09:36:03;27.75;;;20.55;;
36651;SDS011;53334;51.976;20.144;2022-11-20T09:38:38;28.83;;;18.45;;
36651;SDS011;53334;51.976;20.144;2022-11-20T09:41:19;24.45;;;18.13;;
36651;SDS011;53334;51.976;20.144;2022-11-20T09:44:10;28.02;;;19.27;;
36651;SDS011;53334;51.976;20.144;2022-11-20T09:46:51;27.55;;;19.63;;
36651;SDS011;53334;51.976;20.144;2022-11-20T09:49:32;26.20;;;19.10;;
36651;SDS011;53334;51.976;20.144;2022-11-20T09:52:22;28.00;;;20.67;;
36651;SDS011;53334;51.976;20.144;2022-11-20T09:55:08;24.85;;;18.85;;
36651;SDS011;53334;51.976;20.144;2022-11-20T09:57:45;27.60;;;19.65;;
36651;SDS011;53334;51.976;20.144;2022-11-20T10:00:21;28.00;;;19.25;;
36651;SDS011;53334;51.976;20.144;2022-11-20T10:02:57;27.13;;;18.67;;
36651;SDS011;53334;51.976;20.144;2022-11-20T10:05:35;27.45;;;18.80;;
36651;SDS011;53334;51.976;20.144;2022-11-20T10:08:16;24.42;;;18.52;;
36651;SDS011;53334;51.976;20.144;2022-11-20T10:10:56;26.75;;;19.73;;
36651;SDS011;53334;51.976;20.144;2022-11-20T10:13:40;28.05;;;18.13;;
36651;SDS011;53334;51.976;20.144;2022-11-20T10:16:24;22.80;;;18.50;;
36651;SDS011;53334;51.976;20.144;2022-11-20T10:19:18;24.85;;;16.83;;
36651;SDS011;53334;51.976;20.144;2022-11-20T10:22:05;23.17;;;18.00;;
36651;SDS011;53334;51.976;20.144;2022-11-20T10:24:51;24.67;;;16.30;;
36651;SDS011;53334;51.976;20.144;2022-11-20T10:27:34;21.27;;;15.73;;
36651;SDS011;53334;51.976;20.144;2022-11-20T10:30:24;26.85;;;18.88;;
36651;SDS011;53334;51.976;20.144;2022-11-20T10:32:59;25.08;;;18.60;;
36651;SDS011;53334;51.976;20.144;2022-11-20T10:35:39;26.92;;;18.25;;
36651;SDS011;53334;51.976;20.144;2022-11-20T10:38:16;27.52;;;18.17;;
36651;SDS011;53334;51.976;20.144;2022-11-20T10:40:56;25.23;;;18.08;;
36651;SDS011;53334;51.976;20.144;2022-11-20T10:43:49;22.90;;;16.08;;
36651;SDS011;53334;51.976;20.144;2022-11-20T10:46:29;22.27;;;16.73;;
36651;SDS011;53334;51.976;20.144;2022-11-20T10:49:11;24.10;;;17.48;;
36651;SDS011;53334;51.976;20.144;2022-11-20T10:51:52;25.02;;;18.52;;
36651;SDS011;53334;51.976;20.144;2022-11-20T10:54:39;23.13;;;17.05;;
36651;SDS011;53334;51.976;20.144;2022-11-20T10:57:20;21.35;;;16.50;;
36651;SDS011;53334;51.976;20.144;2022-11-20T11:00:07;20.60;;;15.80;;
36651;SDS011;53334;51.976;20.144;2022-11-20T11:02:44;21.92;;;17.30;;
36651;SDS011;53334;51.976;20.144;2022-11-20T11:05:22;21.17;;;16.95;;
36651;SDS011;53334;51.976;20.144;2022-11-20T11:08:04;23.25;;;16.02;;
36651;SDS011;53334;51.976;20.144;2022-11-20T11:10:44;18.75;;;15.73;;
36651;SDS011;53334;51.976;20.144;2022-11-20T11:13:25;22.67;;;16.33;;
36651;SDS011;53334;51.976;20.144;2022-11-20T11:16:02;23.40;;;17.40;;
36651;SDS011;53334;51.976;20.144;2022-11-20T11:18:36;22.30;;;16.05;;
36651;SDS011;53334;51.976;20.144;2022-11-20T11:21:11;24.13;;;16.60;;
36651;SDS011;53334;51.976;20.144;2022-11-20T11:23:46;22.70;;;16.77;;
36651;SDS011;53334;51.976;20.144;2022-11-20T11:26:20;20.20;;;15.73;;
36651;SDS011;53334;51.976;20.144;2022-11-20T11:28:56;24.15;;;17.40;;
36651;SDS011;53334;51.976;20.144;2022-11-20T11:31:33;26.70;;;16.95;;
36651;SDS011;53334;51.976;20.144;2022-11-20T11:34:11;26.45;;;16.88;;
36651;SDS011;53334;51.976;20.144;2022-11-20T11:36:49;20.60;;;16.60;;
36651;SDS011;53334;51.976;20.144;2022-11-20T11:39:28;26.60;;;16.67;;
36651;SDS011;53334;51.976;20.144;2022-11-20T11:42:05;21.00;;;15.45;;
36651;SDS011;53334;51.976;20.144;2022-11-20T11:44:44;23.02;;;17.33;;
36651;SDS011;53334;51.976;20.144;2022-11-20T11:47:43;21.52;;;15.15;;
36651;SDS011;53334;51.976;20.144;2022-11-20T11:50:20;25.08;;;16.67;;
36651;SDS011;53334;51.976;20.144;2022-11-20T11:52:56;23.10;;;14.73;;
36651;SDS011;53334;51.976;20.144;2022-11-20T11:55:38;22.80;;;15.77;;
36651;SDS011;53334;51.976;20.144;2022-11-20T11:58:19;21.40;;;15.20;;
36651;SDS011;53334;51.976;20.144;2022-11-20T12:01:10;21.38;;;16.17;;
36651;SDS011;53334;51.976;20.144;2022-11-20T12:03:59;21.42;;;15.70;;
36651;SDS011;53334;51.976;20.144;2022-11-20T12:06:38;19.60;;;15.50;;
36651;SDS011;53334;51.976;20.144;2022-11-20T12:09:16;21.73;;;15.00;;
36651;SDS011;53334;51.976;20.144;2022-11-20T12:11:54;22.42;;;16.08;;
36651;SDS011;53334;51.976;20.144;2022-11-20T12:14:33;23.33;;;15.68;;
36651;SDS011;53334;51.976;20.144;2022-11-20T12:17:10;22.15;;;16.13;;
36651;SDS011;53334;51.976;20.144;2022-11-20T12:19:46;21.35;;;15.45;;
36651;SDS011;53334;51.976;20.144;2022-11-20T12:22:23;24.15;;;15.40;;
36651;SDS011;53334;51.976;20.144;2022-11-20T12:25:04;22.38;;;14.98;;
36651;SDS011;53334;51.976;20.144;2022-11-20T12:27:44;19.50;;;14.73;;
36651;SDS011;53334;51.976;20.144;2022-11-20T12:30:27;22.17;;;15.70;;
36651;SDS011;53334;51.976;20.144;2022-11-20T12:33:04;23.90;;;15.38;;
36651;SDS011;53334;51.976;20.144;2022-11-20T12:35:57;18.67;;;14.15;;
36651;SDS011;53334;51.976;20.144;2022-11-20T12:38:58;21.63;;;15.07;;
36651;SDS011;53334;51.976;20.144;2022-11-20T12:41:58;20.25;;;15.98;;
36651;SDS011;53334;51.976;20.144;2022-11-20T12:45:05;18.98;;;14.18;;
36651;SDS011;53334;51.976;20.144;2022-11-20T12:47:49;25.10;;;15.77;;
36651;SDS011;53334;51.976;20.144;2022-11-20T12:50:37;19.35;;;14.88;;
36651;SDS011;53334;51.976;20.144;2022-11-20T12:53:42;17.45;;;14.48;;
36651;SDS011;53334;51.976;20.144;2022-11-20T12:56:26;20.42;;;15.52;;
36651;SDS011;53334;51.976;20.144;2022-11-20T12:59:20;21.00;;;15.63;;
36651;SDS011;53334;51.976;20.144;2022-11-20T13:02:09;21.77;;;15.88;;
36651;SDS011;53334;51.976;20.144;2022-11-20T13:05:04;19.17;;;14.70;;
36651;SDS011;53334;51.976;20.144;2022-11-20T13:07:50;22.27;;;16.08;;
36651;SDS011;53334;51.976;20.144;2022-11-20T13:10:31;21.38;;;14.27;;
36651;SDS011;53334;51.976;20.144;2022-11-20T13:13:11;20.92;;;16.05;;
36651;SDS011;53334;51.976;20.144;2022-11-20T13:15:50;21.17;;;15.63;;
36651;SDS011;53334;51.976;20.144;2022-11-20T13:18:29;19.75;;;15.15;;
36651;SDS011;53334;51.976;20.144;2022-11-20T13:21:15;19.83;;;15.15;;
36651;SDS011;53334;51.976;20.144;2022-11-20T13:23:50;22.05;;;15.23;;
36651;SDS011;53334;51.976;20.144;2022-11-20T13:26:25;21.63;;;15.18;;
36651;SDS011;53334;51.976;20.144;2022-11-20T13:29:02;19.02;;;14.30;;
36651;SDS011;53334;51.976;20.144;2022-11-20T13:31:43;26.90;;;16.38;;
36651;SDS011;53334;51.976;20.144;2022-11-20T13:34:22;20.77;;;15.20;;
36651;SDS011;53334;51.976;20.144;2022-11-20T13:36:58;19.40;;;15.93;;
36651;SDS011;53334;51.976;20.144;2022-11-20T13:39:36;24.98;;;16.65;;
36651;SDS011;53334;51.976;20.144;2022-11-20T13:42:20;21.40;;;16.27;;
36651;SDS011;53334;51.976;20.144;2022-11-20T13:45:02;21.17;;;15.05;;
36651;SDS011;53334;51.976;20.144;2022-11-20T13:47:47;20.73;;;16.75;;
36651;SDS011;53334;51.976;20.144;2022-11-20T13:50:37;22.05;;;16.17;;
36651;SDS011;53334;51.976;20.144;2022-11-20T13:53:22;22.00;;;16.77;;
36651;SDS011;53334;51.976;20.144;2022-11-20T13:56:17;25.33;;;16.73;;
36651;SDS011;53334;51.976;20.144;2022-11-20T13:59:02;27.60;;;16.80;;
36651;SDS011;53334;51.976;20.144;2022-11-20T14:01:45;20.20;;;15.50;;
36651;SDS011;53334;51.976;20.144;2022-11-20T14:04:22;22.23;;;16.52;;
36651;SDS011;53334;51.976;20.144;2022-11-20T14:07:00;24.02;;;17.75;;
36651;SDS011;53334;51.976;20.144;2022-11-20T14:09:34;19.48;;;15.82;;
36651;SDS011;53334;51.976;20.144;2022-11-20T14:12:14;19.23;;;15.38;;
36651;SDS011;53334;51.976;20.144;2022-11-20T14:14:52;22.60;;;14.85;;
36651;SDS011;53334;51.976;20.144;2022-11-20T14:17:29;19.40;;;15.35;;
36651;SDS011;53334;51.976;20.144;2022-11-20T14:20:05;20.25;;;15.02;;
36651;SDS011;53334;51.976;20.144;2022-11-20T14:22:48;21.08;;;15.68;;
36651;SDS011;53334;51.976;20.144;2022-11-20T14:25:23;18.85;;;14.93;;
36651;SDS011;53334;51.976;20.144;2022-11-20T14:28:00;18.15;;;14.77;;
36651;SDS011;53334;51.976;20.144;2022-11-20T14:30:38;21.55;;;15.82;;
36651;SDS011;53334;51.976;20.144;2022-11-20T14:33:16;25.05;;;16.27;;
36651;SDS011;53334;51.976;20.144;2022-11-20T14:35:52;19.85;;;15.45;;
36651;SDS011;53334;51.976;20.144;2022-11-20T14:38:28;23.05;;;15.25;;
36651;SDS011;53334;51.976;20.144;2022-11-20T14:41:05;20.63;;;14.95;;
36651;SDS011;53334;51.976;20.144;2022-11-20T14:43:40;21.52;;;15.90;;
36651;SDS011;53334;51.976;20.144;2022-11-20T14:46:21;20.45;;;15.55;;
36651;SDS011;53334;51.976;20.144;2022-11-20T14:48:56;20.63;;;15.65;;
36651;SDS011;53334;51.976;20.144;2022-11-20T14:51:33;18.70;;;14.93;;
36651;SDS011;53334;51.976;20.144;2022-11-20T14:54:14;22.98;;;15.52;;
36651;SDS011;53334;51.976;20.144;2022-11-20T14:56:53;21.90;;;15.48;;
36651;SDS011;53334;51.976;20.144;2022-11-20T14:59:28;18.35;;;15.25;;
36651;SDS011;53334;51.976;20.144;2022-11-20T15:02:05;18.55;;;14.18;;
36651;SDS011;53334;51.976;20.144;2022-11-20T15:04:46;21.70;;;14.95;;
36651;SDS011;53334;51.976;20.144;2022-11-20T15:07:24;18.42;;;14.77;;
36651;SDS011;53334;51.976;20.144;2022-11-20T15:10:00;22.52;;;15.32;;
36651;SDS011;53334;51.976;20.144;2022-11-20T15:12:40;24.00;;;16.08;;
36651;SDS011;53334;51.976;20.144;2022-11-20T15:15:21;20.13;;;15.00;;
36651;SDS011;53334;51.976;20.144;2022-11-20T15:18:00;22.88;;;16.35;;
36651;SDS011;53334;51.976;20.144;2022-11-20T15:20:34;22.85;;;15.70;;
36651;SDS011;53334;51.976;20.144;2022-11-20T15:23:10;23.75;;;17.25;;
36651;SDS011;53334;51.976;20.144;2022-11-20T15:25:45;23.27;;;15.30;;
36651;SDS011;53334;51.976;20.144;2022-11-20T15:28:20;19.40;;;15.63;;
36651;SDS011;53334;51.976;20.144;2022-11-20T15:31:00;21.02;;;15.55;;
36651;SDS011;53334;51.976;20.144;2022-11-20T15:33:36;19.15;;;14.73;;
36651;SDS011;53334;51.976;20.144;2022-11-20T15:36:10;19.13;;;14.82;;
36651;SDS011;53334;51.976;20.144;2022-11-20T15:38:45;25.65;;;15.32;;
36651;SDS011;53334;51.976;20.144;2022-11-20T15:41:19;20.25;;;15.13;;
36651;SDS011;53334;51.976;20.144;2022-11-20T15:43:53;20.02;;;14.68;;
36651;SDS011;53334;51.976;20.144;2022-11-20T15:49:03;18.23;;;13.43;;
36651;SDS011;53334;51.976;20.144;2022-11-20T15:51:39;21.15;;;13.15;;
36651;SDS011;53334;51.976;20.144;2022-11-20T15:54:16;23.13;;;12.30;;
36651;SDS011;53334;51.976;20.144;2022-11-20T15:56:53;18.58;;;11.57;;
36651;SDS011;53334;51.976;20.144;2022-11-20T15:59:28;32.22;;;11.90;;
36651;SDS011;53334;51.976;20.144;2022-11-20T16:02:02;20.90;;;11.98;;
36651;SDS011;53334;51.976;20.144;2022-11-20T16:04:40;19.20;;;12.50;;
36651;SDS011;53334;51.976;20.144;2022-11-20T16:07:14;20.13;;;12.57;;
36651;SDS011;53334;51.976;20.144;2022-11-20T16:09:49;23.40;;;12.40;;
36651;SDS011;53334;51.976;20.144;2022-11-20T16:15:10;14.35;;;10.50;;
36651;SDS011;53334;51.976;20.144;2022-11-20T16:18:01;21.42;;;12.18;;
36651;SDS011;53334;51.976;20.144;2022-11-20T16:20:37;15.65;;;11.98;;
36651;SDS011;53334;51.976;20.144;2022-11-20T16:23:11;19.77;;;13.15;;
36651;SDS011;53334;51.976;20.144;2022-11-20T16:25:47;18.90;;;11.73;;
36651;SDS011;53334;51.976;20.144;2022-11-20T16:28:22;18.40;;;12.10;;
36651;SDS011;53334;51.976;20.144;2022-11-20T16:30:56;17.83;;;12.15;;
36651;SDS011;53334;51.976;20.144;2022-11-20T16:33:30;16.33;;;12.00;;
36651;SDS011;53334;51.976;20.144;2022-11-20T16:38:43;20.88;;;11.95;;
36651;SDS011;53334;51.976;20.144;2022-11-20T16:41:17;17.40;;;11.80;;
36651;SDS011;53334;51.976;20.144;2022-11-20T16:43:55;24.83;;;11.52;;
36651;SDS011;53334;51.976;20.144;2022-11-20T16:46:30;18.58;;;12.43;;
36651;SDS011;53334;51.976;20.144;2022-11-20T16:49:05;23.27;;;13.18;;
36651;SDS011;53334;51.976;20.144;2022-11-20T16:51:44;28.80;;;13.60;;
36651;SDS011;53334;51.976;20.144;2022-11-20T16:54:19;23.50;;;12.25;;
36651;SDS011;53334;51.976;20.144;2022-11-20T16:56:53;17.63;;;11.20;;
36651;SDS011;53334;51.976;20.144;2022-11-20T17:02:01;18.85;;;12.75;;
36651;SDS011;53334;51.976;20.144;2022-11-20T17:04:35;33.35;;;12.93;;
36651;SDS011;53334;51.976;20.144;2022-11-20T17:07:11;26.92;;;13.45;;
36651;SDS011;53334;51.976;20.144;2022-11-20T17:09:46;22.13;;;12.88;;
36651;SDS011;53334;51.976;20.144;2022-11-20T17:12:21;21.08;;;13.57;;
36651;SDS011;53334;51.976;20.144;2022-11-20T17:17:29;28.67;;;12.32;;
36651;SDS011;53334;51.976;20.144;2022-11-20T17:22:38;26.48;;;13.43;;
36651;SDS011;53334;51.976;20.144;2022-11-20T17:25:12;17.90;;;12.70;;
36651;SDS011;53334;51.976;20.144;2022-11-20T17:27:47;24.67;;;11.90;;
36651;SDS011;53334;51.976;20.144;2022-11-20T17:30:21;20.25;;;11.20;;
36651;SDS011;53334;51.976;20.144;2022-11-20T17:32:55;17.02;;;11.50;;
36651;SDS011;53334;51.976;20.144;2022-11-20T17:35:29;17.92;;;12.43;;
36651;SDS011;53334;51.976;20.144;2022-11-20T17:38:04;18.10;;;12.15;;
36651;SDS011;53334;51.976;20.144;2022-11-20T17:40:38;20.23;;;11.65;;
36651;SDS011;53334;51.976;20.144;2022-11-20T17:43:13;21.50;;;11.77;;
36651;SDS011;53334;51.976;20.144;2022-11-20T17:45:47;21.50;;;11.02;;
36651;SDS011;53334;51.976;20.144;2022-11-20T17:48:21;23.15;;;11.48;;
36651;SDS011;53334;51.976;20.144;2022-11-20T17:50:58;20.15;;;12.40;;
36651;SDS011;53334;51.976;20.144;2022-11-20T17:53:35;17.00;;;12.05;;
36651;SDS011;53334;51.976;20.144;2022-11-20T17:56:10;18.63;;;11.98;;
36651;SDS011;53334;51.976;20.144;2022-11-20T17:59:03;16.35;;;11.60;;
36651;SDS011;53334;51.976;20.144;2022-11-20T18:01:37;24.20;;;13.07;;
36651;SDS011;53334;51.976;20.144;2022-11-20T18:04:13;21.98;;;11.48;;
36651;SDS011;53334;51.976;20.144;2022-11-20T18:06:47;20.40;;;11.57;;
36651;SDS011;53334;51.976;20.144;2022-11-20T18:11:57;26.60;;;11.70;;
36651;SDS011;53334;51.976;20.144;2022-11-20T18:14:31;22.50;;;12.65;;
36651;SDS011;53334;51.976;20.144;2022-11-20T18:17:08;20.23;;;12.10;;